createdAt,value
2023-09-01T00:01:16.304Z,101229.28
2023-09-01T00:03:43.365Z,101234.63
2023-09-01T00:06:15.632Z,101232.91
2023-09-01T00:08:43.184Z,101232.06
2023-09-01T00:11:10.895Z,101237.56
2023-09-01T00:13:37.506Z,101244.75
2023-09-01T00:16:04.254Z,101247.41
2023-09-01T00:18:31.366Z,101236.88
2023-09-01T00:20:59.756Z,101244.91
2023-09-01T00:23:26.613Z,101234.38
2023-09-01T00:25:54.516Z,101237.19
2023-09-01T00:28:21.047Z,101234.38
2023-09-01T00:30:54.440Z,101235.50
2023-09-01T00:33:21.071Z,101227.50
2023-09-01T00:35:51.524Z,101228.47
2023-09-01T00:38:18.722Z,101239.97
2023-09-01T00:40:46.339Z,101240.13
2023-09-01T00:43:13.522Z,101236.63
2023-09-01T00:45:40.587Z,101239.31
2023-09-01T00:48:08.856Z,101231.44
2023-09-01T00:50:37.682Z,101237.63
2023-09-01T00:53:06.569Z,101239.59
2023-09-01T00:55:37.007Z,101247.63
2023-09-01T00:58:04.035Z,101249.44
2023-09-01T01:00:33.179Z,101242.28
2023-09-01T01:03:05.685Z,101237.94
2023-09-01T01:06:01.375Z,101242.44
2023-09-01T01:08:45.311Z,101237.25
2023-09-01T01:11:53.690Z,101245.25
2023-09-01T01:14:28.369Z,101247.06
2023-09-01T01:16:56.796Z,101248.88
2023-09-01T01:19:55.500Z,101244.53
2023-09-01T01:22:35.369Z,101251.72
2023-09-01T01:25:05.383Z,101250.03
2023-09-01T01:27:31.950Z,101248.34
2023-09-01T01:29:58.392Z,101250.19
2023-09-01T01:32:25.041Z,101250.19
2023-09-01T01:35:05.334Z,101249.34
2023-09-01T01:37:42.321Z,101245.97
2023-09-01T01:40:09.812Z,101245.97
2023-09-01T01:42:38.085Z,101245.16
2023-09-01T01:45:06.013Z,101246.97
2023-09-01T01:47:33.763Z,101243.59
2023-09-01T01:50:00.362Z,101241.91
2023-09-01T01:52:26.813Z,101247.25
2023-09-01T01:54:53.266Z,101249.09
2023-09-01T01:57:19.867Z,101261.59
2023-09-01T01:59:46.543Z,101249.09
2023-09-01T02:02:13.027Z,101255.41
2023-09-01T02:04:39.549Z,101251.91
2023-09-01T02:07:06.745Z,101252.91
2023-09-01T02:09:34.736Z,101252.06
2023-09-01T02:12:01.193Z,101250.38
2023-09-01T02:14:27.721Z,101246.88
2023-09-01T02:16:54.183Z,101252.22
2023-09-01T02:19:20.598Z,101259.38
2023-09-01T02:21:47.041Z,101259.50
2023-09-01T02:24:13.456Z,101256.81
2023-09-01T02:26:39.903Z,101249.81
2023-09-01T02:29:06.502Z,101256.97
2023-09-01T02:31:33.158Z,101253.47
2023-09-01T02:33:59.646Z,101255.31
2023-09-01T02:36:35.830Z,101252.63
2023-09-01T02:39:05.781Z,101252.78
2023-09-01T02:41:32.228Z,101250.94
2023-09-01T02:43:58.801Z,101245.75
2023-09-01T02:46:25.569Z,101249.44
2023-09-01T02:48:52.182Z,101251.25
2023-09-01T02:51:19.178Z,101256.59
2023-09-01T02:53:46.326Z,101247.75
2023-09-01T02:56:12.849Z,101246.88
2023-09-01T02:58:39.423Z,101240.84
2023-09-01T03:01:10.342Z,101245.34
2023-09-01T03:03:39.293Z,101240.00
2023-09-01T03:06:06.776Z,101238.31
2023-09-01T03:08:33.641Z,101240.16
2023-09-01T03:11:00.366Z,101235.66
2023-09-01T03:13:27.193Z,101232.28
2023-09-01T03:15:57.606Z,101221.59
2023-09-01T03:18:25.086Z,101221.59
2023-09-01T03:20:54.118Z,101210.94
2023-09-01T03:23:24.189Z,101215.44
2023-09-01T03:25:55.712Z,101203.91
2023-09-01T03:28:22.370Z,101210.25
2023-09-01T03:30:48.877Z,101218.38
2023-09-01T03:33:16.470Z,101215.69
2023-09-01T03:35:42.880Z,101206.84
2023-09-01T03:38:09.948Z,101210.38
2023-09-01T03:40:37.296Z,101214.03
2023-09-01T03:43:03.913Z,101215.84
2023-09-01T03:45:30.434Z,101213.19
2023-09-01T03:47:56.924Z,101213.19
2023-09-01T03:50:23.444Z,101213.19
2023-09-01T03:52:50.106Z,101207.16
2023-09-01T03:55:16.594Z,101209.81
2023-09-01T03:57:45.287Z,101210.81
2023-09-01T04:00:12.963Z,101208.97
2023-09-01T04:02:39.497Z,101203.66
2023-09-01T04:05:06.528Z,101205.47
2023-09-01T04:07:32.985Z,101201.97
2023-09-01T04:09:59.455Z,101209.13
2023-09-01T04:12:25.982Z,101213.63
2023-09-01T04:14:52.500Z,101207.47
2023-09-01T04:17:18.958Z,101210.13
2023-09-01T04:19:51.174Z,101212.78
2023-09-01T04:22:17.577Z,101219.97
2023-09-01T04:24:44.727Z,101218.13
2023-09-01T04:27:11.236Z,101214.75
2023-09-01T04:29:39.591Z,101213.78
2023-09-01T04:32:06.363Z,101208.56
2023-09-01T04:34:33.662Z,101208.56
2023-09-01T04:37:04.726Z,101209.41
2023-09-01T04:39:31.260Z,101205.06
2023-09-01T04:41:57.755Z,101207.72
2023-09-01T04:44:24.281Z,101207.72
2023-09-01T04:46:50.658Z,101198.88
2023-09-01T04:49:17.067Z,101206.03
2023-09-01T04:51:43.849Z,101204.22
2023-09-01T04:54:10.567Z,101213.22
2023-09-01T04:56:37.054Z,101214.91
2023-09-01T04:59:03.542Z,101217.72
2023-09-01T05:01:30.509Z,101224.88
2023-09-01T05:03:57.003Z,101236.41
2023-09-01T05:06:23.560Z,101236.41
2023-09-01T05:08:49.984Z,101231.91
2023-09-01T05:11:16.454Z,101234.56
2023-09-01T05:13:42.949Z,101237.25
2023-09-01T05:16:11.742Z,101236.09
2023-09-01T05:18:38.250Z,101232.59
2023-09-01T05:21:04.709Z,101231.59
2023-09-01T05:23:33.410Z,101238.66
2023-09-01T05:25:59.932Z,101233.00
2023-09-01T05:28:26.465Z,101234.69
2023-09-01T05:30:52.906Z,101229.19
2023-09-01T05:33:19.353Z,101233.56
2023-09-01T05:35:46.166Z,101235.22
2023-09-01T05:38:12.744Z,101229.88
2023-09-01T05:40:39.317Z,101230.63
2023-09-01T05:43:05.876Z,101237.63
2023-09-01T05:45:32.394Z,101227.78
2023-09-01T05:47:58.885Z,101221.75
2023-09-01T05:50:25.423Z,101221.75
2023-09-01T05:52:51.905Z,101227.94
2023-09-01T05:55:18.337Z,101227.09
2023-09-01T05:57:45.023Z,101224.13
2023-09-01T06:00:11.891Z,101214.97
2023-09-01T06:02:38.393Z,101213.97
2023-09-01T06:05:06.304Z,101213.03
2023-09-01T06:07:32.727Z,101214.56
2023-09-01T06:09:59.847Z,101226.75
2023-09-01T06:12:26.391Z,101223.94
2023-09-01T06:14:52.867Z,101218.59
2023-09-01T06:17:20.950Z,101221.00
2023-09-01T06:19:50.921Z,101234.03
2023-09-01T06:22:17.469Z,101229.38
2023-09-01T06:24:43.933Z,101232.75
2023-09-01T06:27:10.420Z,101230.09
2023-09-01T06:29:36.884Z,101238.97
2023-09-01T06:32:04.997Z,101236.28
2023-09-01T06:34:31.576Z,101243.44
2023-09-01T06:36:58.827Z,101251.44
2023-09-01T06:39:25.267Z,101251.44
2023-09-01T06:41:51.694Z,101241.75
2023-09-01T06:44:18.150Z,101244.56
2023-09-01T06:46:44.816Z,101240.06
2023-09-01T06:49:11.793Z,101240.91
2023-09-01T06:51:38.755Z,101242.91
2023-09-01T06:54:06.271Z,101247.25
2023-09-01T06:56:32.697Z,101246.56
2023-09-01T06:58:59.303Z,101256.41
2023-09-01T07:01:28.911Z,101256.41
2023-09-01T07:03:55.849Z,101258.25
2023-09-01T07:06:22.300Z,101259.22
2023-09-01T07:08:48.798Z,101261.91
2023-09-01T07:11:20.507Z,101258.38
2023-09-01T07:13:48.045Z,101247.81
2023-09-01T07:16:14.888Z,101242.63
2023-09-01T07:18:42.369Z,101242.63
2023-09-01T07:21:08.876Z,101249.81
2023-09-01T07:23:35.488Z,101249.66
2023-09-01T07:26:02.096Z,101240.97
2023-09-01T07:28:28.640Z,101247.13
2023-09-01T07:30:55.129Z,101240.97
2023-09-01T07:33:21.840Z,101239.97
2023-09-01T07:35:50.432Z,101237.28
2023-09-01T07:38:17.841Z,101235.47
2023-09-01T07:40:46.564Z,101236.44
2023-09-01T07:43:13.310Z,101228.28
2023-09-01T07:45:40.872Z,101227.44
2023-09-01T07:48:20.622Z,101217.59
2023-09-01T07:50:49.789Z,101215.78
2023-09-01T07:53:16.984Z,101214.09
2023-09-01T07:55:43.503Z,101223.78
2023-09-01T07:58:09.907Z,101221.13
2023-09-01T08:00:38.796Z,101230.84
2023-09-01T08:03:07.022Z,101229.00
2023-09-01T08:05:33.671Z,101225.50
2023-09-01T08:08:00.116Z,101234.34
2023-09-01T08:10:26.614Z,101236.19
2023-09-01T08:12:53.011Z,101241.53
2023-09-01T08:15:19.524Z,101237.88
2023-09-01T08:17:46.883Z,101237.88
2023-09-01T08:20:14.704Z,101252.06
2023-09-01T08:22:42.058Z,101252.06
2023-09-01T08:25:10.215Z,101252.91
2023-09-01T08:27:36.705Z,101252.91
2023-09-01T08:30:04.784Z,101254.72
2023-09-01T08:32:31.332Z,101253.75
2023-09-01T08:34:57.798Z,101251.91
2023-09-01T08:37:24.333Z,101248.25
2023-09-01T08:39:50.758Z,101249.91
2023-09-01T08:42:19.561Z,101251.59
2023-09-01T08:44:46.973Z,101247.09
2023-09-01T08:47:16.582Z,101255.00
2023-09-01T08:49:43.108Z,101250.50
2023-09-01T08:52:11.429Z,101258.50
2023-09-01T08:54:39.008Z,101265.69
2023-09-01T08:57:05.544Z,101260.34
2023-09-01T08:59:32.938Z,101263.00
2023-09-01T09:02:00.689Z,101260.44
2023-09-01T09:04:27.787Z,101256.78
2023-09-01T09:06:54.510Z,101258.50
2023-09-01T09:09:22.170Z,101255.84
2023-09-01T09:12:00.996Z,101261.88
2023-09-01T09:30:09.922Z,101256.06
2023-09-01T09:32:36.476Z,101258.47
2023-09-01T09:35:11.926Z,101261.66
2023-09-01T09:37:40.910Z,101267.56
2023-09-01T09:40:16.951Z,101276.13
2023-09-01T09:42:47.440Z,101282.16
2023-09-01T09:45:34.315Z,101286.25
2023-09-01T09:48:06.079Z,101291.59
2023-09-01T09:50:34.547Z,101286.13
2023-09-01T09:53:03.756Z,101287.78
2023-09-01T09:55:40.434Z,101294.66
2023-09-01T09:58:09.023Z,101290.00
2023-09-01T10:00:54.559Z,101289.88
2023-09-01T10:03:24.709Z,101300.28
2023-09-01T10:05:52.410Z,101302.94
2023-09-01T10:08:21.800Z,101309.81
2023-09-01T10:10:50.293Z,101310.66
2023-09-01T10:13:17.832Z,101312.50
2023-09-01T10:15:47.445Z,101310.81
2023-09-01T10:18:14.484Z,101311.66
2023-09-01T10:20:44.560Z,101311.81
2023-09-01T10:23:12.256Z,101316.31
2023-09-01T10:25:38.943Z,101309.13
2023-09-01T10:28:12.031Z,101313.34
2023-09-01T10:30:41.172Z,101316.00
2023-09-01T10:33:07.865Z,101318.56
2023-09-01T10:35:48.912Z,101315.88
2023-09-01T10:38:33.730Z,101317.56
2023-09-01T10:41:00.699Z,101317.56
2023-09-01T10:43:36.679Z,101321.91
2023-09-01T10:46:18.299Z,101322.59
2023-09-01T10:48:51.413Z,101320.63
2023-09-01T10:51:38.363Z,101311.31
2023-09-01T10:54:17.241Z,101316.38
2023-09-01T10:57:03.889Z,101308.19
2023-09-01T10:59:37.846Z,101308.03
2023-09-01T11:02:33.783Z,101300.84
2023-09-01T11:05:01.018Z,101289.19
2023-09-01T11:07:27.637Z,101300.56
2023-09-01T11:09:57.497Z,101308.44
2023-09-01T11:12:30.523Z,101306.59
2023-09-01T11:15:00.264Z,101306.28
2023-09-01T11:17:45.320Z,101305.19
2023-09-01T11:20:14.476Z,101309.38
2023-09-01T11:22:42.928Z,101309.91
2023-09-01T11:25:12.631Z,101310.63
2023-09-01T11:27:43.441Z,101320.16
2023-09-01T11:30:10.515Z,101318.19
2023-09-01T11:32:37.097Z,101319.84
2023-09-01T11:35:05.022Z,101328.72
2023-09-01T11:37:41.774Z,101325.88
2023-09-01T11:40:13.773Z,101326.59
2023-09-01T11:42:43.069Z,101332.09
2023-09-01T11:45:11.467Z,101338.41
2023-09-01T11:47:38.738Z,101332.22
2023-09-01T11:50:06.012Z,101332.94
2023-09-01T11:52:32.572Z,101345.84
2023-09-01T11:54:59.193Z,101342.59
2023-09-01T11:57:25.705Z,101336.94
2023-09-01T11:59:52.388Z,101342.84
2023-09-01T12:02:20.521Z,101345.03
2023-09-01T12:04:51.854Z,101348.56
2023-09-01T12:07:26.206Z,101343.53
2023-09-01T12:09:53.780Z,101348.03
2023-09-01T12:12:20.503Z,101351.00
2023-09-01T12:14:47.812Z,101350.31
2023-09-01T12:17:22.161Z,101349.78
2023-09-01T12:19:52.476Z,101360.06
2023-09-01T12:22:19.695Z,101367.56
2023-09-01T12:24:56.795Z,101373.19
2023-09-01T12:27:23.654Z,101371.00
2023-09-01T12:29:50.846Z,101371.31
2023-09-01T12:32:18.581Z,101368.91
2023-09-01T12:34:48.776Z,101373.41
2023-09-01T12:37:15.494Z,101374.09
2023-09-01T12:39:42.342Z,101372.25
2023-09-01T12:42:08.902Z,101373.56
2023-09-01T12:44:36.235Z,101384.56
2023-09-01T12:47:02.788Z,101384.00
2023-09-01T12:49:29.694Z,101387.66
2023-09-01T12:51:56.216Z,101383.84
2023-09-01T12:54:22.809Z,101388.78
2023-09-01T12:56:49.355Z,101391.97
2023-09-01T12:59:16.352Z,101396.22
2023-09-01T13:01:42.850Z,101401.56
2023-09-01T13:04:09.338Z,101399.16
2023-09-01T13:06:35.834Z,101395.81
2023-09-01T13:09:04.414Z,101394.28
2023-09-01T13:11:30.903Z,101400.47
2023-09-01T13:13:57.341Z,101400.63
2023-09-01T13:16:31.122Z,101395.28
2023-09-01T13:18:58.200Z,101393.59
2023-09-01T13:21:24.695Z,101399.06
2023-09-01T13:23:51.413Z,101409.91
2023-09-01T13:26:17.968Z,101403.03
2023-09-01T13:28:44.501Z,101407.53
2023-09-01T13:31:10.976Z,101407.69
2023-09-01T13:33:41.927Z,101406.97
2023-09-01T13:36:09.361Z,101398.41
2023-09-01T13:38:36.181Z,101408.94
2023-09-01T13:41:02.745Z,101409.94
2023-09-01T13:43:29.277Z,101411.47
2023-09-01T13:45:56.661Z,101411.34
2023-09-01T13:48:23.392Z,101418.50
2023-09-01T13:50:49.859Z,101420.22
2023-09-01T13:53:17.958Z,101416.13
2023-09-01T13:55:44.623Z,101416.13
2023-09-01T13:58:11.220Z,101422.31
2023-09-01T14:00:37.759Z,101424.84
2023-09-01T14:03:04.540Z,101425.41
2023-09-01T14:05:31.018Z,101424.97
2023-09-01T14:07:57.517Z,101426.78
2023-09-01T14:10:24.044Z,101428.47
2023-09-01T14:12:50.429Z,101427.63
2023-09-01T14:15:17.259Z,101431.31
2023-09-01T14:17:43.935Z,101431.31
2023-09-01T14:20:10.928Z,101434.38
2023-09-01T14:22:37.378Z,101431.81
2023-09-01T14:25:04.073Z,101430.38
2023-09-01T14:27:30.553Z,101434.59
2023-09-01T14:29:57.008Z,101428.25
2023-09-01T14:32:23.559Z,101432.47
2023-09-01T14:34:50.053Z,101432.88
2023-09-01T14:37:17.564Z,101431.72
2023-09-01T14:39:44.075Z,101431.25
2023-09-01T14:42:10.539Z,101422.81
2023-09-01T14:44:37.061Z,101415.47
2023-09-01T14:47:03.864Z,101416.59
2023-09-01T14:49:30.415Z,101408.75
2023-09-01T14:51:56.988Z,101409.00
2023-09-01T14:54:23.445Z,101402.66
2023-09-01T14:56:49.848Z,101409.00
2023-09-01T14:59:19.335Z,101418.03
2023-09-01T15:01:46.317Z,101417.19
2023-09-01T15:04:12.872Z,101413.53
2023-09-01T15:06:39.305Z,101412.16
2023-09-01T15:09:05.742Z,101422.28
2023-09-01T15:11:32.692Z,101429.47
2023-09-01T15:13:59.155Z,101434.72
2023-09-01T15:16:26.893Z,101430.88
2023-09-01T15:18:53.438Z,101431.56
2023-09-01T15:21:19.947Z,101433.81
2023-09-01T15:23:48.351Z,101433.50
2023-09-01T15:26:17.050Z,101437.19
2023-09-01T15:28:43.473Z,101433.50
2023-09-01T15:31:09.961Z,101430.00
2023-09-01T15:33:36.414Z,101422.13
2023-09-01T15:36:03.183Z,101422.81
2023-09-01T15:38:30.885Z,101430.69
2023-09-01T15:41:01.089Z,101431.41
2023-09-01T15:43:28.148Z,101423.25
2023-09-01T15:45:55.610Z,101421.41
2023-09-01T15:48:23.588Z,101422.25
2023-09-01T15:50:54.607Z,101416.06
2023-09-01T15:53:21.052Z,101424.91
2023-09-01T15:55:47.659Z,101431.94
2023-09-01T15:58:14.109Z,101431.78
2023-09-01T16:00:40.581Z,101428.97
2023-09-01T16:03:08.792Z,101428.97
2023-09-01T16:05:36.719Z,101422.94
2023-09-01T16:08:04.037Z,101425.59
2023-09-01T16:10:34.137Z,101423.78
2023-09-01T16:13:00.569Z,101421.09
2023-09-01T16:15:27.128Z,101428.13
2023-09-01T16:17:54.618Z,101429.28
2023-09-01T16:20:22.090Z,101420.41
2023-09-01T16:22:48.929Z,101433.94
2023-09-01T16:25:16.433Z,101434.91
2023-09-01T16:27:43.657Z,101427.16
2023-09-01T16:30:10.681Z,101426.31
2023-09-01T16:32:37.256Z,101431.50
2023-09-01T16:35:21.479Z,101431.50
2023-09-01T16:37:50.147Z,101432.22
2023-09-01T16:40:18.145Z,101434.91
2023-09-01T16:42:45.568Z,101435.03
2023-09-01T16:45:13.197Z,101434.19
2023-09-01T16:47:40.712Z,101436.88
2023-09-01T16:50:09.311Z,101433.34
2023-09-01T16:52:35.775Z,101437.03
2023-09-01T16:55:02.258Z,101435.34
2023-09-01T16:57:28.826Z,101435.50
2023-09-01T16:59:55.349Z,101442.81
2023-09-01T17:02:21.889Z,101441.28
2023-09-01T17:04:48.357Z,101452.97
2023-09-01T17:07:14.815Z,101448.47
2023-09-01T17:09:41.415Z,101446.63
2023-09-01T17:12:10.743Z,101454.50
2023-09-01T17:14:37.252Z,101455.50
2023-09-01T17:17:03.840Z,101460.00
2023-09-01T17:19:30.321Z,101465.34
2023-09-01T17:21:56.831Z,101461.00
2023-09-01T17:24:23.249Z,101456.66
2023-09-01T17:26:49.676Z,101453.13
2023-09-01T17:29:16.874Z,101455.81
2023-09-01T17:31:43.411Z,101468.34
2023-09-01T17:34:09.883Z,101470.34
2023-09-01T17:36:36.413Z,101468.50
2023-09-01T17:39:04.709Z,101466.81
2023-09-01T17:41:36.635Z,101466.94
2023-09-01T17:44:04.709Z,101472.28
2023-09-01T17:46:31.455Z,101483.00
2023-09-01T17:48:57.863Z,101482.88
2023-09-01T17:51:27.904Z,101488.22
2023-09-01T17:53:56.457Z,101488.34
2023-09-01T17:56:24.068Z,101489.19
2023-09-01T17:58:50.605Z,101492.00
2023-09-01T18:01:18.052Z,101489.34
2023-09-01T18:03:44.868Z,101497.38
2023-09-01T18:06:13.478Z,101493.84
2023-09-01T18:08:40.132Z,101500.72
2023-09-01T18:11:06.678Z,101505.13
2023-09-01T18:13:35.009Z,101509.63
2023-09-01T18:16:04.996Z,101507.78
2023-09-01T18:18:35.423Z,101513.13
2023-09-01T18:21:04.121Z,101512.16
2023-09-01T18:23:31.036Z,101517.19
2023-09-01T18:26:21.532Z,101519.72
2023-09-01T18:28:48.897Z,101520.72
2023-09-01T18:31:21.685Z,101523.38
2023-09-01T18:33:49.910Z,101531.25
2023-09-01T18:36:21.257Z,101539.13
2023-09-01T18:38:48.945Z,101546.47
2023-09-01T18:41:15.502Z,101552.66
2023-09-01T18:43:42.105Z,101556.19
2023-09-01T18:46:08.634Z,101560.44
2023-09-01T18:48:35.110Z,101567.47
2023-09-01T18:51:04.387Z,101570.97
2023-09-01T18:53:33.067Z,101569.97
2023-09-01T18:56:00.763Z,101565.47
2023-09-01T18:58:27.650Z,101573.34
2023-09-01T19:00:54.699Z,101576.88
2023-09-01T19:03:26.341Z,101590.97
2023-09-01T19:05:56.724Z,101589.16
2023-09-01T19:08:25.294Z,101588.19
2023-09-01T19:10:54.544Z,101581.00
2023-09-01T19:13:22.566Z,101589.84
2023-09-01T19:15:54.782Z,101599.56
2023-09-01T19:18:39.852Z,101598.59
2023-09-01T19:21:06.318Z,101603.09
2023-09-01T19:23:34.964Z,101606.59
2023-09-01T19:26:07.495Z,101599.41
2023-09-01T19:28:38.425Z,101603.09
2023-09-01T19:31:08.103Z,101602.09
2023-09-01T19:33:40.613Z,101607.44
2023-09-01T19:36:16.661Z,101606.59
2023-09-01T19:38:47.933Z,101612.13
2023-09-01T19:41:14.645Z,101617.31
2023-09-01T19:43:41.695Z,101619.16
2023-09-01T19:46:08.817Z,101617.47
2023-09-01T19:48:39.635Z,101615.78
2023-09-01T19:51:06.919Z,101618.47
2023-09-01T19:53:33.923Z,101618.47
2023-09-01T19:56:13.970Z,101650.56
2023-09-01T19:58:54.160Z,101653.41
2023-09-01T20:01:25.224Z,101651.81
2023-09-01T20:03:52.732Z,101648.16
2023-09-01T20:06:26.099Z,101648.91
2023-09-01T20:08:53.503Z,101643.53
2023-09-01T20:11:21.549Z,101648.75
2023-09-01T20:13:49.877Z,101646.75
2023-09-01T20:16:21.800Z,101647.44
2023-09-01T20:18:48.229Z,101650.97
2023-09-01T20:21:16.573Z,101655.63
2023-09-01T20:23:43.103Z,101652.41
2023-09-01T20:26:09.624Z,101648.59
2023-09-01T20:28:36.045Z,101636.63
2023-09-01T20:31:02.561Z,101643.25
2023-09-01T20:33:29.687Z,101647.34
2023-09-01T20:35:56.186Z,101647.78
2023-09-01T20:38:25.846Z,101652.56
2023-09-01T20:40:53.088Z,101660.03
2023-09-01T20:43:20.144Z,101668.31
2023-09-01T20:45:46.760Z,101670.16
2023-09-01T20:48:13.254Z,101675.09
2023-09-01T20:50:39.739Z,101672.56
2023-09-01T20:53:06.171Z,101673.81
2023-09-01T20:55:33.066Z,101671.44
2023-09-01T20:57:59.618Z,101663.56
2023-09-01T21:00:26.741Z,101662.00
2023-09-01T21:02:53.225Z,101667.63
2023-09-01T21:05:21.344Z,101677.63
2023-09-01T21:07:49.989Z,101687.75
2023-09-01T21:10:18.220Z,101698.56
2023-09-01T21:12:44.778Z,101701.41
2023-09-01T21:15:11.288Z,101697.88
2023-09-01T21:17:37.888Z,101693.66
2023-09-01T21:20:05.081Z,101705.31
2023-09-01T21:22:32.464Z,101701.25
2023-09-01T21:24:58.892Z,101712.91
2023-09-01T21:27:26.532Z,101704.06
2023-09-01T21:29:54.847Z,101698.84
2023-09-01T21:32:21.934Z,101702.50
2023-09-01T21:34:49.566Z,101699.13
2023-09-01T21:37:16.653Z,101708.13
2023-09-01T21:39:43.660Z,101705.72
2023-09-01T21:42:10.134Z,101700.38
2023-09-01T21:44:36.648Z,101697.72
2023-09-01T21:47:03.094Z,101699.53
2023-09-01T21:49:29.509Z,101702.44
2023-09-01T21:51:56.033Z,101708.78
2023-09-01T21:54:22.509Z,101708.78
2023-09-01T21:56:48.910Z,101701.88
2023-09-01T21:59:15.354Z,101700.34
2023-09-01T22:01:41.873Z,101705.69
2023-09-01T22:04:08.339Z,101713.94
2023-09-01T22:06:34.792Z,101719.19
2023-09-01T22:09:01.276Z,101716.63
2023-09-01T22:11:27.672Z,101723.78
2023-09-01T22:13:54.810Z,101714.94
2023-09-01T22:16:22.569Z,101721.25
2023-09-01T22:18:49.053Z,101716.91
2023-09-01T22:21:16.649Z,101714.22
2023-09-01T22:23:43.044Z,101725.91
2023-09-01T22:26:09.725Z,101736.72
2023-09-01T22:28:36.244Z,101734.06
2023-09-01T22:31:02.802Z,101737.44
2023-09-01T22:33:29.390Z,101737.72
2023-09-01T22:35:55.873Z,101736.88
2023-09-01T22:38:22.479Z,101736.00
2023-09-01T22:40:49.310Z,101727.97
2023-09-01T22:43:19.655Z,101732.63
2023-09-01T22:45:47.277Z,101730.94
2023-09-01T22:48:13.763Z,101734.44
2023-09-01T22:50:42.933Z,101729.25
2023-09-01T22:53:09.447Z,101731.78
2023-09-01T22:55:35.901Z,101731.91
2023-09-01T22:58:02.390Z,101737.28
2023-09-01T23:00:30.253Z,101732.06
2023-09-01T23:02:58.009Z,101733.03
2023-09-01T23:05:24.599Z,101729.53
2023-09-01T23:07:51.215Z,101731.22
2023-09-01T23:10:17.807Z,101740.94
2023-09-01T23:12:44.258Z,101734.88
2023-09-01T23:15:10.907Z,101741.19
2023-09-01T23:17:37.411Z,101735.97
2023-09-01T23:20:05.086Z,101738.78
2023-09-01T23:22:31.568Z,101738.78
2023-09-01T23:24:58.050Z,101739.63
2023-09-01T23:27:25.504Z,101739.75
2023-09-01T23:29:52.157Z,101737.09
2023-09-01T23:32:18.641Z,101732.72
2023-09-01T23:34:45.166Z,101743.56
2023-09-01T23:37:11.676Z,101747.06
2023-09-01T23:39:38.149Z,101750.72
2023-09-01T23:42:04.944Z,101761.56
2023-09-01T23:44:31.416Z,101747.31
2023-09-01T23:46:58.041Z,101748.19
2023-09-01T23:49:24.554Z,101750.88
2023-09-01T23:51:51.018Z,101749.16
2023-09-01T23:54:17.650Z,101755.47
2023-09-01T23:56:44.525Z,101752.81
2023-09-01T23:59:11.336Z,101753.78
